EW9807 Weather Reports


time (UTC)temp
C
wind
direction
speed
KPH
gust
KPH
rain 1hr
cm
rain 24hr
cm
rain mn
cm
humidity
%
barometer
mb
20260906011537 22 234 0.0 0.0 0.00 1.27 1.27 95 1011.7
20260906011036 22 234 0.0 0.0 0.00 1.27 1.27 95 1011.5
20260906010536 22 234 0.0 0.0 0.00 1.27 1.27 94 1011.3
20260906010040 22 234 0.0 0.0 0.00 1.27 1.27 94 1011.2
20260906005535 22 234 0.0 0.0 0.03 1.27 1.27 94 1010.9
20260906005038 22 234 0.0 1.6 0.08 1.27 1.27 94 1010.6
20260906004536 22 234 0.0 1.6 0.23 1.27 1.27 94 1010.7
20260906004035 22 234 0.0 1.6 0.36 1.27 1.27 93 1010.7
20260906003535 22 234 0.0 3.2 0.81 1.27 1.27 93 1010.6
20260906003034 22 234 0.0 3.2 1.24 1.27 1.27 93 1010.6
20260906002533 22 238 0.0 3.2 1.27 1.27 1.27 92 1010.7
20260906002033 22 238 0.0 4.8 1.27 1.27 1.27 92 1010.5
20260906001547 22 269 1.6 6.4 1.27 1.27 1.27 91 1010.4
20260906001031 22 207 1.6 8.0 1.27 1.27 1.27 91 1010.0
20260906000531 22 175 0.0 8.0 1.27 1.27 1.27 91 1010.4
20260906000035 23 177 0.0 11.3 1.27 1.27 1.27 91 1010.3
20260905235531 23 182 4.8 11.3 1.24 1.24 1.24 90 1010.4
20260905235031 23 58 3.2 11.3 1.17 1.17 1.17 88 1011.1
20260905234531 23 212 4.8 11.3 1.04 1.04 1.04 88 1011.3
20260905234031 24 183 3.2 9.7 0.84 0.84 0.84 85 1010.6
20260905233531 26 345 1.6 6.4 0.38 0.38 0.38 82 1011.0
20260905233032 27 349 1.6 11.3 0.00 0.00 0.00 75 1011.3
20260905232530 29 311 3.2 14.5 0.00 0.00 0.00 67 1011.0
20260905232030 30 344 4.8 11.3 0.00 0.00 0.00 68 1010.5
20260905231530 31 313 3.2 11.3 0.00 0.00 0.00 70 1009.6
20260905231031 31 231 3.2 12.9 0.00 0.00 0.00 70 1009.2
20260905230529 31 240 4.8 12.9 0.00 0.00 0.00 70 1009.0
20260905230034 31 183 4.8 12.9 0.00 0.00 0.00 70 1009.0
20260905225535 31 240 6.4 14.5 0.00 0.00 0.00 70 1009.3
20260905225029 31 172 8.0 16.1 0.00 0.00 0.00 70 1009.3
20260905224532 31 236 4.8 16.1 0.00 0.00 0.00 69 1009.1
20260905224029 32 186 3.2 11.3 0.00 0.00 0.00 69 1009.1
20260905223528 32 181 3.2 14.5 0.00 0.00 0.00 68 1009.1
20260905223041 32 212 6.4 14.5 0.00 0.00 0.00 68 1009.0
20260905222528 32 223 3.2 14.5 0.00 0.00 0.00 67 1009.0
20260905222027 32 172 4.8 11.3 0.00 0.00 0.00 66 1009.0
20260905221528 32 186 3.2 9.7 0.00 0.00 0.00 66 1008.9
20260905221027 33 181 3.2 16.1 0.00 0.00 0.00 64 1009.0
20260905220530 33 188 6.4 16.1 0.00 0.00 0.00 63 1008.8
20260905220027 33 200 4.8 16.1 0.00 0.00 0.00 61 1008.8
20260905215527 33 176 6.4 16.1 0.00 0.00 0.00 60 1008.8
20260905215027 34 180 6.4 14.5 0.00 0.00 0.00 58 1008.8
20260905214526 34 200 3.2 8.0 0.00 0.00 0.00 56 1008.6
20260905214026 34 180 3.2 8.0 0.00 0.00 0.00 52 1008.6
20260905213528 34 194 0.0 3.2 0.00 0.00 0.00 52 1008.7
20260905213026 34 194 0.0 4.8 0.00 0.00 0.00 53 1008.6
20260905212528 34 192 0.0 4.8 0.00 0.00 0.00 52 1008.6
20260905212025 34 190 0.0 3.2 0.00 0.00 0.00 50 1008.6
20260905211525 35 193 1.6 11.3 0.00 0.00 0.00 50 1008.6
20260905211024 35 193 3.2 11.3 0.00 0.00 0.00 50 1008.7
20260905210524 35 178 4.8 9.7 0.00 0.00 0.00 49 1008.7
20260905210032 35 169 1.6 8.0 0.00 0.00 0.00 51 1008.8
20260905205523 35 136 3.2 11.3 0.00 0.00 0.00 50 1008.8
20260905205022 35 176 3.2 11.3 0.00 0.00 0.00 51 1008.9
20260905204522 34 163 0.0 3.2 0.00 0.00 0.00 53 1008.9
20260905204020 34 163 0.0 3.2 0.00 0.00 0.00 52 1009.1
20260905203524 35 163 0.0 8.0 0.00 0.00 0.00 52 1009.1
20260905203020 35 186 0.0 8.0 0.00 0.00 0.00 50 1009.2
20260905202519 35 186 1.6 8.0 0.00 0.00 0.00 49 1009.3
20260905202019 35 271 1.6 4.8 0.00 0.00 0.00 49 1009.3
20260905201523 35 271 1.6 8.0 0.00 0.00 0.00 49 1009.3
20260905201017 35 191 1.6 11.3 0.00 0.00 0.00 48 1009.4
20260905200520 35 176 4.8 11.3 0.00 0.00 0.00 50 1009.6
20260905200018 35 193 1.6 8.0 0.00 0.00 0.00 49 1009.8
20260905195513 35 165 4.8 8.0 0.00 0.00 0.00 48 1009.9
20260905195014 35 88 1.6 3.2 0.00 0.00 0.00 50 1009.9
20260905194513 35 88 1.6 3.2 0.00 0.00 0.00 51 1010.0
20260905194013 35 88 0.0 3.2 0.00 0.00 0.00 51 1010.2
20260905193513 35 90 0.0 4.8 0.00 0.00 0.00 50 1010.1
20260905193018 35 79 1.6 4.8 0.00 0.00 0.00 50 1010.2
20260905192511 34 258 0.0 0.0 0.00 0.00 0.00 50 1010.3
20260905192013 34 258 0.0 3.2 0.00 0.00 0.00 50 1010.3
20260905191511 34 258 0.0 4.8 0.00 0.00 0.00 51 1010.3
20260905191013 34 258 1.6 4.8 0.00 0.00 0.00 52 1010.3
20260905190510 34 168 0.0 4.8 0.00 0.00 0.00 52 1010.4
20260905190010 34 65 1.6 3.2 0.00 0.00 0.00 52 1010.4
20260905185509 33 65 1.6 3.2 0.00 0.00 0.00 54 1010.3
20260905185009 34 68 0.0 8.0 0.00 0.00 0.00 52 1010.4
20260905184513 35 68 0.0 8.0 0.00 0.00 0.00 51 1010.5
20260905184007 35 188 1.6 6.4 0.00 0.00 0.00 50 1010.5
20260905183507 35 108 0.0 3.2 0.00 0.00 0.00 53 1010.7
20260905183005 35 103 0.0 9.7 0.00 0.00 0.00 50 1010.8
20260905182506 35 107 4.8 9.7 0.00 0.00 0.00 50 1010.9
20260905182005 35 53 0.0 8.0 0.00 0.00 0.00 50 1010.9
20260905181504 35 78 1.6 8.0 0.00 0.00 0.00 51 1011.0
20260905181004 35 158 1.6 6.4 0.00 0.00 0.00 52 1011.0
20260905180502 35 162 0.0 6.4 0.00 0.00 0.00 57 1011.0
20260905180005 35 252 1.6 8.0 0.00 0.00 0.00 52 1011.0
20260905175501 35 206 1.6 8.0 0.00 0.00 0.00 53 1011.0
20260905175100 34 210 4.8 8.0 0.00 0.00 0.00 57 1011.1
20260905174604 32 186 0.0 0.0 0.00 0.00 0.00 60 1011.2
20260905174059 32 186 0.0 1.6 0.00 0.00 0.00 59 1011.4
20260905173558 33 186 0.0 4.8 0.00 0.00 0.00 58 1011.4
20260905173057 34 184 1.6 4.8 0.00 0.00 0.00 55 1011.6
20260905172556 35 205 1.6 3.2 0.00 0.00 0.00 57 1011.5
20260905172055 34 205 0.0 8.0 0.00 0.00 0.00 55 1011.7
20260905171554 33 203 1.6 8.0 0.00 0.00 0.00 57 1011.7
20260905171053 33 280 1.6 4.8 0.00 0.00 0.00 58 1011.7
20260905170552 32 80 0.0 3.2 0.00 0.00 0.00 59 1011.7
20260905170053 32 46 0.0 3.2 0.00 0.00 0.00 59 1011.9
20260905165552 33 46 0.0 3.2 0.00 0.00 0.00 57 1011.9
20260905165052 33 46 0.0 6.4 0.00 0.00 0.00 56 1011.9
20260905164552 33 47 1.6 8.0 0.00 0.00 0.00 56 1011.9
20260905164050 33 92 3.2 6.4 0.00 0.00 0.00 58 1012.0
20260905163549 33 340 0.0 3.2 0.00 0.00 0.00 59 1012.1
20260905163049 33 340 0.0 4.8 0.00 0.00 0.00 58 1012.2
20260905162549 33 335 1.6 4.8 0.00 0.00 0.00 59 1012.3
20260905162048 33 284 1.6 6.4 0.00 0.00 0.00 60 1012.4
20260905161547 33 303 0.0 4.8 0.00 0.00 0.00 61 1012.4
20260905161045 33 304 1.6 4.8 0.00 0.00 0.00 61 1012.5
20260905160544 32 288 1.6 4.8 0.00 0.00 0.00 61 1012.5
20260905160044 32 288 1.6 6.4 0.00 0.00 0.00 61 1012.6
20260905155543 32 1 1.6 4.8 0.00 0.00 0.00 62 1012.6
20260905155041 32 101 1.6 4.8 0.00 0.00 0.00 61 1012.6
20260905154541 32 155 1.6 4.8 0.00 0.00 0.00 62 1012.7
20260905154040 32 134 0.0 0.0 0.00 0.00 0.00 60 1012.7
20260905153542 32 134 0.0 0.0 0.00 0.00 0.00 61 1012.7
20260905153038 32 134 0.0 0.0 0.00 0.00 0.00 64 1012.8
20260905152536 31 130 0.0 0.0 0.00 0.00 0.00 63 1012.8
20260905152035 31 130 0.0 0.0 0.00 0.00 0.00 64 1012.8
20260905151534 31 131 0.0 0.0 0.00 0.00 0.00 65 1012.9
20260905151033 31 135 0.0 0.0 0.00 0.00 0.00 65 1012.8
20260905150531 31 133 0.0 0.0 0.00 0.00 0.00 66 1012.9
20260905150030 30 132 0.0 0.0 0.00 0.00 0.00 67 1012.9
20260905145527 30 132 0.0 0.0 0.00 0.00 0.00 69 1013.0
20260905145028 30 133 0.0 0.0 0.00 0.00 0.00 71 1013.0
20260905144525 29 133 0.0 0.0 0.00 0.00 0.00 71 1013.0
20260905144024 28 133 0.0 0.0 0.00 0.00 0.00 72 1013.1
20260905143525 28 133 0.0 0.0 0.00 0.00 0.00 73 1013.1
20260905143033 28 133 0.0 0.0 0.00 0.00 0.00 75 1013.2
20260905142530 28 133 0.0 0.0 0.00 0.00 0.00 75 1013.2
20260905142021 28 134 0.0 0.0 0.00 0.00 0.00 75 1013.2
20260905141520 28 134 0.0 0.0 0.00 0.00 0.00 77 1013.1
20260905141020 28 134 0.0 0.0 0.00 0.00 0.00 76 1013.2
20260905140517 27 134 0.0 0.0 0.00 0.00 0.00 78 1013.2
20260905140017 27 134 0.0 0.0 0.00 0.00 0.00 79 1013.3
20260905135515 27 134 0.0 0.0 0.00 0.00 0.00 80 1013.3
20260905135018 27 134 0.0 0.0 0.00 0.00 0.00 81 1013.3
20260905134524 27 133 0.0 0.0 0.00 0.00 0.00 82 1013.2
20260905134012 26 133 0.0 0.0 0.00 0.00 0.00 82 1013.2
20260905133510 26 133 0.0 3.2 0.00 0.00 0.00 83 1013.3
20260905133010 26 133 0.0 3.2 0.00 0.00 0.00 84 1013.3
20260905132509 26 131 0.0 1.6 0.00 0.00 0.00 85 1013.4
20260905132011 26 131 0.0 1.6 0.00 0.00 0.00 85 1013.4
20260905131509 25 131 0.0 1.6 0.00 0.00 0.00 86 1013.4
20260905131007 25 131 0.0 1.6 0.00 0.00 0.00 87 1013.5
20260905130507 25 131 0.0 1.6 0.00 0.00 0.00 88 1013.6
20260905130006 25 131 0.0 0.0 0.00 0.00 0.00 89 1013.6
20260905125505 25 131 0.0 0.0 0.00 0.00 0.00 90 1013.5
20260905125005 24 131 0.0 0.0 0.00 0.00 0.00 91 1013.4
20260905124508 24 131 0.0 0.0 0.00 0.00 0.00 92 1013.4
20260905124005 23 131 0.0 0.0 0.00 0.00 0.00 93 1013.4
20260905123507 23 131 0.0 0.0 0.00 0.00 0.00 94 1013.4
20260905123023 23 131 0.0 0.0 0.00 0.00 0.00 94 1013.5
20260905122503 23 131 0.0 0.0 0.00 0.00 0.00 94 1013.5
20260905122006 23 131 0.0 0.0 0.00 0.00 0.00 94 1013.5
20260905121502 23 131 0.0 0.0 0.00 0.00 0.00 94 1013.5
20260905121001 23 131 0.0 0.0 0.00 0.00 0.00 94 1013.4
20260905120603 22 131 0.0 0.0 0.00 0.00 0.00 94 1013.4
20260905120101 22 131 0.0 0.0 0.00 0.00 0.00 94 1013.2
20260905115559 22 131 0.0 0.0 0.00 0.00 0.00 94 1013.2
20260905115103 22 131 0.0 0.0 0.00 0.00 0.00 94 1013.2
20260905114559 22 131 0.0 0.0 0.00 0.00 0.00 94 1013.1
20260905114058 22 131 0.0 0.0 0.00 0.00 0.00 94 1013.1
20260905113557 22 131 0.0 0.0 0.00 0.00 0.00 94 1013.1
20260905113100 22 131 0.0 0.0 0.00 0.00 0.00 94 1013.0
20260905112600 22 131 0.0 0.0 0.00 0.00 0.00 94 1013.0
20260905112056 22 131 0.0 0.0 0.00 0.00 0.00 94 1013.0
20260905111600 22 131 0.0 0.0 0.00 0.00 0.00 94 1012.9
20260905111056 22 131 0.0 0.0 0.00 0.00 0.00 94 1012.8
20260905110601 22 131 0.0 0.0 0.00 0.00 0.00 94 1012.8
20260905110055 22 131 0.0 0.0 0.00 0.00 0.00 94 1012.8
20260905105556 22 131 0.0 0.0 0.00 0.00 0.00 94 1012.7
20260905105056 22 131 0.0 0.0 0.00 0.00 0.00 94 1012.8
20260905104555 22 131 0.0 0.0 0.00 0.00 0.00 94 1012.8
20260905104056 22 131 0.0 0.0 0.00 0.00 0.00 94 1012.7
20260905103556 22 131 0.0 0.0 0.00 0.00 0.00 94 1012.6
20260905103100 22 131 0.0 0.0 0.00 0.00 0.00 94 1012.6
20260905102555 22 131 0.0 0.0 0.00 0.00 0.00 94 1012.5
20260905102054 22 131 0.0 0.0 0.00 0.00 0.00 94 1012.4
20260905101554 22 131 0.0 0.0 0.00 0.00 0.00 94 1012.4
20260905101053 22 131 0.0 0.0 0.00 0.00 0.00 94 1012.4
20260905100553 22 131 0.0 0.0 0.00 0.00 0.00 93 1012.5
20260905100100 22 131 0.0 0.0 0.00 0.00 0.00 93 1012.4
20260905095552 22 131 0.0 0.0 0.00 0.00 0.00 93 1012.4
20260905095052 22 131 0.0 0.0 0.00 0.00 0.00 93 1012.4
20260905094552 22 131 0.0 0.0 0.00 0.00 0.00 93 1012.4
20260905094051 22 131 0.0 0.0 0.00 0.00 0.00 93 1012.4
20260905093552 23 131 0.0 0.0 0.00 0.00 0.00 93 1012.4
20260905093052 23 131 0.0 0.0 0.00 0.00 0.00 93 1012.3
20260905092552 23 131 0.0 0.0 0.00 0.00 0.00 93 1012.4
20260905092052 23 131 0.0 0.0 0.00 0.00 0.00 93 1012.4
20260905091555 23 131 0.0 0.0 0.00 0.00 0.00 92 1012.4
20260905091051 23 131 0.0 0.0 0.00 0.00 0.00 92 1012.4
20260905090549 23 131 0.0 0.0 0.00 0.00 0.00 92 1012.3
20260905090049 23 131 0.0 0.0 0.00 0.00 0.00 92 1012.4
20260905085550 23 131 0.0 0.0 0.00 0.00 0.00 92 1012.4
20260905085048 23 131 0.0 0.0 0.00 0.00 0.00 92 1012.4
20260905084604 23 131 0.0 0.0 0.00 0.00 0.00 92 1012.3
20260905084048 23 131 0.0 0.0 0.00 0.00 0.00 92 1012.3
20260905083551 23 131 0.0 0.0 0.00 0.00 0.00 92 1012.4
20260905083050 23 131 0.0 0.0 0.00 0.00 0.00 92 1012.4
20260905082547 23 131 0.0 0.0 0.00 0.00 0.00 92 1012.3
20260905082047 23 131 0.0 0.0 0.00 0.00 0.00 92 1012.4
20260905081547 23 131 0.0 0.0 0.00 0.00 0.00 91 1012.3
20260905081048 23 131 0.0 0.0 0.00 0.00 0.00 91 1012.2
20260905080546 23 131 0.0 0.0 0.00 0.00 0.00 91 1012.3
20260905080112 23 131 0.0 0.0 0.00 0.00 0.00 91 1012.3
20260905075546 23 131 0.0 0.0 0.00 0.00 0.00 91 1012.3
20260905075044 23 131 0.0 0.0 0.00 0.00 0.00 90 1012.2
20260905074544 23 131 0.0 0.0 0.00 0.00 0.00 90 1012.3
20260905074044 23 131 0.0 0.0 0.00 0.00 0.00 90 1012.3
20260905073543 23 131 0.0 0.0 0.00 0.00 0.00 90 1012.2
20260905073044 23 131 0.0 0.0 0.00 0.00 0.00 90 1012.1
20260905072547 23 131 0.0 0.0 0.00 0.00 0.00 90 1012.0
20260905072043 23 131 0.0 0.0 0.00 0.00 0.00 90 1011.9
20260905071543 23 131 0.0 0.0 0.00 0.00 0.00 90 1012.0
20260905071042 23 131 0.0 0.0 0.00 0.00 0.00 90 1012.0
20260905070542 23 131 0.0 0.0 0.00 0.00 0.00 89 1011.9
20260905070050 23 131 0.0 0.0 0.00 0.00 0.00 89 1011.7
20260905065543 23 131 0.0 0.0 0.00 0.00 0.00 88 1011.9
20260905065040 23 131 0.0 0.0 0.00 0.00 0.00 88 1012.0
20260905064547 23 131 0.0 0.0 0.00 0.00 0.00 88 1012.2
20260905064040 23 131 0.0 0.0 0.00 0.00 0.00 87 1012.3
20260905063538 24 131 0.0 0.0 0.00 0.00 0.00 87 1012.4
20260905063041 24 131 0.0 0.0 0.00 0.00 0.00 86 1012.4
20260905062535 24 131 0.0 0.0 0.00 0.00 0.00 86 1012.4
20260905062034 24 131 0.0 0.0 0.00 0.00 0.00 85 1012.5
20260905061535 25 131 0.0 0.0 0.00 0.00 0.00 85 1012.5
20260905061034 25 131 0.0 0.0 0.00 0.00 0.00 84 1012.6
20260905060530 25 131 0.0 0.0 0.00 0.00 0.00 84 1012.7
20260905060043 25 131 0.0 0.0 0.00 0.00 0.00 83 1012.7
20260905055529 25 131 0.0 1.6 0.00 0.00 0.00 83 1012.8
20260905055028 25 131 0.0 3.2 0.00 0.00 0.00 83 1012.9
20260905054536 25 131 0.0 3.2 0.00 0.00 0.00 82 1012.9
20260905054033 25 131 0.0 1.6 0.00 0.00 0.00 82 1013.0
20260905053528 26 131 0.0 1.6 0.00 0.00 0.00 81 1013.0
20260905053028 26 131 0.0 0.0 0.00 0.00 0.00 81 1012.9
20260905052527 26 131 0.0 0.0 0.00 0.00 0.00 80 1012.9
20260905052027 26 131 0.0 3.2 0.00 0.00 0.00 80 1012.9
20260905051527 26 131 0.0 3.2 0.00 0.00 0.00 79 1012.9
20260905051027 26 131 0.0 3.2 0.00 0.00 0.00 79 1012.9
20260905050526 26 131 0.0 3.2 0.00 0.00 0.00 79 1013.0
20260905050028 26 131 0.0 3.2 0.00 0.00 0.00 78 1013.0
20260905045525 26 146 0.0 3.2 0.00 0.00 0.00 78 1013.0
20260905045030 26 145 0.0 4.8 0.00 0.00 0.00 78 1012.9
20260905044534 26 134 0.0 4.8 0.00 0.00 0.00 79 1012.9
20260905044025 25 188 0.0 1.6 0.00 0.00 0.00 80 1013.0
20260905043524 25 188 0.0 1.6 0.00 0.00 0.00 80 1013.1
20260905043023 25 188 0.0 0.0 0.00 0.00 0.00 81 1013.0
20260905042526 25 188 0.0 0.0 0.00 0.00 0.00 80 1013.0
20260905042022 25 188 0.0 0.0 0.00 0.00 0.00 79 1013.0
20260905041522 25 188 0.0 0.0 0.00 0.00 0.00 80 1013.0
20260905041020 25 188 0.0 0.0 0.00 0.00 0.00 79 1012.9
20260905040518 25 188 0.0 0.0 0.00 0.00 0.00 79 1012.8
20260905040024 26 188 0.0 0.0 0.00 0.00 0.00 79 1012.8
20260905035518 26 188 0.0 0.0 0.00 0.00 0.00 78 1012.8
20260905035017 26 188 0.0 0.0 0.00 0.00 0.00 79 1012.8
20260905034518 26 188 0.0 0.0 0.00 0.00 0.00 79 1012.9
20260905034018 26 188 0.0 0.0 0.00 0.00 0.00 78 1012.9
20260905033519 26 188 0.0 0.0 0.00 0.00 0.00 80 1012.9
20260905033017 26 188 0.0 0.0 0.00 0.00 0.00 79 1012.9
20260905032516 26 188 0.0 0.0 0.00 0.00 0.00 78 1012.9
20260905032017 26 188 0.0 0.0 0.00 0.00 0.00 78 1013.0
20260905031529 26 188 0.0 0.0 0.00 0.00 0.00 77 1013.0
20260905031016 26 188 0.0 0.0 0.00 0.00 0.00 77 1013.1
20260905030516 26 188 0.0 0.0 0.00 0.00 0.00 76 1013.2
20260905030017 26 188 0.0 0.0 0.00 0.00 0.00 76 1013.3
20260905025518 26 188 0.0 0.0 0.00 0.00 0.00 76 1013.3
20260905025016 26 188 0.0 0.0 0.00 0.00 0.00 76 1013.3
20260905024517 26 188 0.0 0.0 0.00 0.00 0.00 76 1013.4
20260905024015 26 188 0.0 0.0 0.00 0.00 0.00 76 1013.5
20260905023522 26 188 0.0 0.0 0.00 0.00 0.00 77 1013.5
20260905023018 27 188 0.0 0.0 0.00 0.00 0.00 75 1013.5
20260905022515 27 188 0.0 0.0 0.00 0.00 0.00 77 1013.6
20260905022021 27 188 0.0 0.0 0.00 0.00 0.00 75 1013.6
20260905021529 27 188 0.0 0.0 0.00 0.00 0.00 75 1013.6
20260905021014 27 188 0.0 0.0 0.00 0.00 0.00 74 1013.7
20260905020517 27 188 0.0 0.0 0.00 0.00 0.00 74 1013.7
20260905020014 27 188 0.0 0.0 0.00 0.00 0.00 74 1013.7
20260905015514 27 188 0.0 0.0 0.00 0.00 0.00 74 1013.7
20260905015016 27 188 0.0 0.0 0.00 0.00 0.00 73 1013.8
20260905014514 27 188 0.0 0.0 0.00 0.00 0.00 73 1013.7
20260905014015 27 188 0.0 0.0 0.00 0.00 0.00 73 1013.6
20260905013515 27 188 0.0 0.0 0.00 0.00 0.00 73 1013.6
20260905013015 27 188 0.0 0.0 0.00 0.00 0.00 72 1013.5
20260905012513 27 188 0.0 0.0 0.00 0.00 0.00 72 1013.5
20260905012013 27 188 0.0 0.0 0.00 0.00 0.00 72 1013.4